• Join FlightAware (Why Join?)
  • Login
  • US Flag 
05:32PM EDT


 

Airport Tracker/Info


-or-


 

Live Flight TrackerFlight Track Log ✈ USC105 ✈ 05-Apr-2013 ✈ KDPA - KYIP

Flight Track Log - Related Links

Times and Time Zones

All times are in EDT time to prevent confusion due to time zone crossing. See the USC105 flight status page for this flight to view local times or setup timezone preferences in your user account.

Time Position Orientation Groundspeed Altitude Reporting Facility
EDT Latitude Longitude Course Direction KTS MPH feet Rate Location/Type
06:00AM 41.9000 -88.2167 153° Southeast 131 151 2,500  Level Chicago TRACON
06:01AM 41.8667 -88.2000 160° South 124 143 3,900 1,200 Climbing Chicago TRACON
06:02AM 41.8544 -88.1933 158° South 122 140 4,100 420 Climbing Chicago Center
06:03AM 41.8183 -88.1569 143° Southeast 145 167 4,500 540 Climbing Chicago Center
06:04AM 41.7794 -88.1211 146° Southeast 169 194 5,200 540 Climbing Chicago Center
06:05AM 41.7625 -88.0686 113° Southeast 184 212 5,700 300 Climbing Chicago Center
06:06AM 41.9455 -87.8179 153° Southeast  Level Estimated
06:06AM 41.7817 -88.0086 67° East 186 214 5,900  Level Chicago Center
06:07AM 41.7900 -87.9358 81° East 197 227 5,900  Level Chicago Center
06:08AM 41.7986 -87.8656 81° East 192 221 5,900 60 Level Chicago Center
06:08AM 41.8000 -87.8167 88° East 190 219 6,000 60 Climbing Chicago TRACON
06:09AM 41.8167 -87.7333 75° East 200 230 6,000  Level Chicago TRACON
06:10AM 41.8167 -87.6667 90° East 205 236 6,000  Level Chicago TRACON
06:11AM 41.8333 -87.6000 71° East 206 237 6,000  Level Chicago TRACON
06:12AM 41.8339 -87.5750 88° East 204 235 6,000  Level Chicago Center
06:13AM 41.8431 -87.4994 81° East 205 236 6,000  Level Chicago Center
06:14AM 41.8525 -87.4261 80° East 203 234 6,000  Level Chicago Center
06:15AM 41.8614 -87.3514 81° East 201 231 6,000  Level Chicago Center
06:16AM 41.8697 -87.2772 81° East 201 231 6,000  Level Chicago Center
06:17AM 41.8778 -87.2044 82° East 198 228 6,000  Level Chicago Center
06:18AM 41.8867 -87.1317 81° East 198 228 6,000 -60 Level Chicago Center
06:19AM 41.8956 -87.0464 82° East 193 222 5,900  Descending Chicago Center
06:20AM 41.9033 -86.9797 81° East 183 211 6,100 240 Climbing Chicago Center
06:21AM 41.9100 -86.9117 82° East 184 212 6,500 300 Climbing Chicago Center
06:22AM 41.9172 -86.8417 82° East 189 217 6,800 180 Climbing Chicago Center
06:23AM 41.9261 -86.7686 81° East 197 227 6,900  Climbing Chicago Center
06:24AM 41.9344 -86.6942 81° East 201 231 6,900  Level Chicago Center
06:25AM 41.9414 -86.6292 82° East 199 229 6,900  Level Chicago Center
06:26AM 41.9486 -86.5558 82° East 197 227 6,900  Level Chicago Center
06:27AM 41.9572 -86.4783 81° East 208 239 6,900  Level Chicago Center
06:28AM 41.9644 -86.3997 83° East 212 244 6,900  Level Chicago Center
06:29AM 41.9742 -86.3228 80° East 210 242 6,900  Level Chicago Center
06:30AM 41.9850 -86.2303 81° East 210 242 6,900  Level Chicago Center
06:31AM 41.9942 -86.1525 81° East 211 243 6,900  Level Chicago Center
06:32AM 42.0039 -86.0756 80° East 210 242 6,900  Level Chicago Center
06:33AM 42.0128 -85.9972 81° East 211 243 6,900  Level Chicago Center
06:34AM 42.0222 -85.9194 81° East 212 244 6,900  Level Chicago Center
06:35AM 42.0317 -85.8419 81° East 211 243 6,900  Level Chicago Center
06:36AM 42.0411 -85.7653 81° East 209 241 6,900  Level Chicago Center
06:37AM 42.0519 -85.6883 79° East 209 241 6,900  Level Chicago Center
06:38AM 42.0611 -85.6103 81° East 210 242 6,900  Level Chicago Center
06:39AM 42.0694 -85.5319 82° East 210 242 6,900  Level Chicago Center
06:40AM 42.0769 -85.4533 83° East 211 243 6,900  Level Chicago Center
06:41AM 42.0861 -85.3750 81° East 212 244 6,900  Level Chicago Center
06:42AM 42.0947 -85.2969 82° East 211 243 6,900  Level Chicago Center
06:43AM 42.1028 -85.2189 82° East 211 243 6,900  Level Chicago Center
06:44AM 42.1128 -85.1425 80° East 207 238 6,900  Level Chicago Center
06:45AM 42.1222 -85.0647 81° East 210 242 6,900  Level Chicago Center
06:46AM 42.1278 -84.9856 85° East 210 242 6,900  Level Chicago Center
06:47AM 42.1336 -84.9081 84° East 209 241 6,900  Level Chicago Center
06:48AM 42.1397 -84.8292 84° East 210 242 6,900  Level Chicago Center
06:49AM 42.1469 -84.7531 83° East 207 238 6,900  Level Chicago Center
06:50AM 42.1531 -84.6753 84° East 208 239 6,900  Level Chicago Center
06:51AM 42.1586 -84.5992 84° East 205 236 6,900 -300 Level Chicago Center
06:52AM 42.1644 -84.5147 85° East 213 245 6,300 -540 Descending Chicago Center
06:53AM 42.1719 -84.4339 83° East 217 250 5,900 -540 Descending Chicago Center
06:54AM 42.1744 -84.3800 86° East 214 246 5,500 -540 Descending Cleveland Center
06:55AM 42.1839 -84.2850 82° East 209 241 5,000 -300 Descending Cleveland Center
06:56AM 42.1903 -84.2097 83° East 199 229 4,900 -60 Descending Cleveland Center
06:57AM 42.1947 -84.1344 85° East 193 222 4,900  Level Cleveland Center
06:58AM 42.2036 -84.0536 82° East 193 222 4,900 -240 Level Cleveland Center
06:59AM 42.1889 -83.9856 106° East 219 252 4,500 -480 Descending Cleveland Center
07:00AM 42.1556 -83.9164 123° Southeast 211 243 4,000 -540 Descending Cleveland Center
07:01AM 42.1281 -83.8506 119° Southeast 199 229 3,500 -600 Descending Cleveland Center
07:02AM 42.1092 -83.7797 110° East 198 228 2,900 -300 Descending Cleveland Center
07:03AM 42.1150 -83.7211 82° East 151 174 2,900  Level Cleveland Center
07:04AM 42.1350 -83.6744 60° Northeast 143 165 2,900 -60 Level Cleveland Center
07:05AM 42.1656 -83.6311 46° Northeast 138 159 2,800 -360 Descending Cleveland Center
07:06AM 42.1892 -83.6014 43° Northeast 130 150 2,200 -840 Descending Cleveland Center
07:07AM 42.2150 -83.5664 45° Northeast 122 140 1,300 -900 Descending Cleveland Center
07:09AM 42.2333 -83.5167 48° Northeast  Level FlightAware Approximate
07:16AM 42.2393 -83.5310 48° Northeast  Level Estimated